createdAt,value
2019-05-03T00:01:16.514Z,75.65
2019-05-03T00:03:42.592Z,75.40
2019-05-03T00:06:08.739Z,75.50
2019-05-03T00:08:34.720Z,76.01
2019-05-03T00:11:02.307Z,75.81
2019-05-03T00:13:28.683Z,75.94
2019-05-03T00:16:12.241Z,75.95
2019-05-03T00:18:38.442Z,75.69
2019-05-03T00:21:04.714Z,75.85
2019-05-03T00:23:32.449Z,76.08
2019-05-03T00:25:58.834Z,76.30
2019-05-03T00:28:24.907Z,76.38
2019-05-03T00:30:51.879Z,76.20
2019-05-03T00:33:18.238Z,75.60
2019-05-03T00:36:02.991Z,75.59
2019-05-03T00:38:30.003Z,76.17
2019-05-03T00:40:56.119Z,75.86
2019-05-03T00:43:22.313Z,76.20
2019-05-03T00:45:48.382Z,76.19
2019-05-03T00:48:14.371Z,75.86
2019-05-03T00:50:42.455Z,76.35
2019-05-03T00:53:08.418Z,75.79
2019-05-03T00:55:34.415Z,74.56
2019-05-03T00:58:02.333Z,74.59
2019-05-03T01:00:28.567Z,74.89
2019-05-03T01:02:54.582Z,74.47
2019-05-03T01:05:22.494Z,75.62
2019-05-03T01:07:48.548Z,75.69
2019-05-03T01:10:14.666Z,75.28
2019-05-03T01:12:41.661Z,74.79
2019-05-03T01:15:12.325Z,73.96
2019-05-03T01:17:38.459Z,74.84
2019-05-03T01:20:05.701Z,75.02
2019-05-03T01:22:32.229Z,74.11
2019-05-03T01:24:58.474Z,74.59
2019-05-03T01:27:24.602Z,74.48
2019-05-03T01:29:51.992Z,74.25
2019-05-03T01:32:18.133Z,74.50
2019-05-03T01:34:44.153Z,73.87
2019-05-03T01:37:11.938Z,74.76
2019-05-03T01:39:38.081Z,74.99
2019-05-03T01:42:04.180Z,74.09
2019-05-03T01:44:30.094Z,74.20
2019-05-03T01:46:57.903Z,75.15
2019-05-03T01:49:37.926Z,74.52
2019-05-03T01:52:05.733Z,74.85
2019-05-03T01:54:32.165Z,75.85
2019-05-03T01:56:59.206Z,76.07
2019-05-03T01:59:25.288Z,75.24
2019-05-03T02:02:07.958Z,76.02
2019-05-03T02:04:35.770Z,75.56
2019-05-03T02:07:02.280Z,76.53
2019-05-03T02:09:28.773Z,76.84
2019-05-03T02:11:54.676Z,76.71
2019-05-03T02:14:22.196Z,76.91
2019-05-03T02:16:48.186Z,77.32
2019-05-03T02:19:14.280Z,77.28
2019-05-03T02:21:41.681Z,76.23
2019-05-03T02:24:07.867Z,76.53
2019-05-03T02:26:33.892Z,75.95
2019-05-03T02:29:01.726Z,75.58
2019-05-03T02:31:27.896Z,77.00
2019-05-03T02:33:53.892Z,76.43
2019-05-03T02:36:23.030Z,77.41
2019-05-03T02:38:47.750Z,78.67
2019-05-03T02:41:14.593Z,77.65
2019-05-03T02:43:45.555Z,77.01
2019-05-03T02:46:28.245Z,77.39
2019-05-03T02:49:15.378Z,77.31
2019-05-03T02:51:41.436Z,77.00
2019-05-03T02:54:07.329Z,77.22
2019-05-03T02:56:35.258Z,77.49
2019-05-03T02:59:01.144Z,76.48
2019-05-03T03:01:27.843Z,77.23
2019-05-03T03:03:56.015Z,77.57
2019-05-03T03:06:26.544Z,78.03
2019-05-03T03:08:52.572Z,77.44
2019-05-03T03:11:20.373Z,76.42
2019-05-03T03:13:47.088Z,76.27
2019-05-03T03:16:15.216Z,75.92
2019-05-03T03:18:41.131Z,76.17
2019-05-03T03:21:11.241Z,75.88
2019-05-03T03:23:58.711Z,76.34
2019-05-03T03:26:37.223Z,76.46
2019-05-03T03:29:02.042Z,77.30
2019-05-03T03:31:37.811Z,77.56
2019-05-03T03:34:08.351Z,78.12
2019-05-03T03:36:54.494Z,77.48
2019-05-03T03:39:06.278Z,77.85
2019-05-03T03:41:32.613Z,77.44
2019-05-03T03:44:01.502Z,77.36
2019-05-03T03:46:27.663Z,77.06
2019-05-03T03:48:55.855Z,77.68
2019-05-03T03:51:22.526Z,77.71
2019-05-03T03:53:51.993Z,77.57
2019-05-03T03:56:20.041Z,78.00
2019-05-03T03:58:46.613Z,78.41
2019-05-03T04:01:15.534Z,78.48
2019-05-03T04:03:40.980Z,78.58
2019-05-03T04:06:07.532Z,78.21
2019-05-03T04:08:36.124Z,77.64
2019-05-03T04:11:02.740Z,77.44
2019-05-03T04:13:28.912Z,77.65
2019-05-03T04:15:59.815Z,76.99
2019-05-03T04:18:37.252Z,76.74
2019-05-03T04:21:05.559Z,77.07
2019-05-03T04:23:32.178Z,76.98
2019-05-03T04:25:58.502Z,77.08
2019-05-03T04:28:25.692Z,77.35
2019-05-03T04:30:51.720Z,77.06
2019-05-03T04:33:17.635Z,77.47
2019-05-03T04:35:46.304Z,77.56
2019-05-03T04:38:11.345Z,77.31
2019-05-03T04:40:37.297Z,77.04
2019-05-03T04:43:06.077Z,76.91
2019-05-03T04:45:31.890Z,76.10
2019-05-03T04:47:57.940Z,75.81
2019-05-03T04:50:25.507Z,75.75
2019-05-03T04:52:51.824Z,74.56
2019-05-03T04:55:17.903Z,73.34
2019-05-03T04:57:46.799Z,73.37
2019-05-03T05:00:11.973Z,72.70
2019-05-03T05:02:37.910Z,72.48
2019-05-03T05:05:05.974Z,72.10
2019-05-03T05:07:32.048Z,71.97
2019-05-03T05:09:57.916Z,71.69
2019-05-03T05:12:25.244Z,71.63
2019-05-03T05:14:51.348Z,71.19
2019-05-03T05:17:19.112Z,70.82
2019-05-03T05:19:49.667Z,70.24
2019-05-03T05:22:17.528Z,70.58
2019-05-03T05:24:44.991Z,70.34
2019-05-03T05:27:15.705Z,70.35
2019-05-03T05:29:41.558Z,70.13
2019-05-03T05:32:07.422Z,70.58
2019-05-03T05:34:34.918Z,70.37
2019-05-03T05:37:01.010Z,69.89
2019-05-03T05:39:26.867Z,69.85
2019-05-03T05:41:52.717Z,69.77
2019-05-03T05:44:19.598Z,69.67
2019-05-03T05:47:04.706Z,69.65
2019-05-03T05:49:50.428Z,69.51
2019-05-03T05:52:16.278Z,69.08
2019-05-03T05:54:45.564Z,68.38
2019-05-03T05:57:16.392Z,68.38
2019-05-03T05:59:46.686Z,68.13
2019-05-03T06:02:14.947Z,67.09
2019-05-03T06:04:40.524Z,66.96
2019-05-03T06:07:25.047Z,66.46
2019-05-03T06:10:01.951Z,65.43
2019-05-03T06:12:46.175Z,65.52
2019-05-03T06:15:15.020Z,64.10
2019-05-03T06:17:52.008Z,64.43
2019-05-03T06:20:24.469Z,62.79
2019-05-03T06:22:52.261Z,63.48
2019-05-03T06:25:20.023Z,61.76
2019-05-03T06:27:45.887Z,61.58
2019-05-03T06:30:16.520Z,61.84
2019-05-03T06:32:42.390Z,62.46
2019-05-03T06:35:08.561Z,62.32
2019-05-03T06:37:39.202Z,62.91
2019-05-03T06:40:06.159Z,62.29
2019-05-03T06:42:32.345Z,61.99
2019-05-03T06:45:05.869Z,60.97
2019-05-03T06:47:28.527Z,60.79
2019-05-03T06:49:55.229Z,59.89
2019-05-03T06:52:27.558Z,59.28
2019-05-03T06:54:49.013Z,60.30
2019-05-03T06:57:16.579Z,59.99
2019-05-03T06:59:45.159Z,60.34
2019-05-03T07:02:29.408Z,60.40
2019-05-03T07:04:57.165Z,59.71
2019-05-03T07:07:27.913Z,60.02
2019-05-03T07:10:11.819Z,59.85
2019-05-03T07:12:56.352Z,60.15
2019-05-03T07:15:22.215Z,61.37
2019-05-03T07:17:48.076Z,61.46
2019-05-03T07:20:14.836Z,61.80
2019-05-03T07:22:40.707Z,61.73
2019-05-03T07:25:06.693Z,60.29
2019-05-03T07:27:32.543Z,58.57
2019-05-03T07:29:58.426Z,58.00
2019-05-03T07:32:24.793Z,56.92
2019-05-03T07:34:50.879Z,55.79
2019-05-03T07:37:16.802Z,54.85
2019-05-03T07:39:42.664Z,54.96
2019-05-03T07:42:08.542Z,53.60
2019-05-03T07:44:34.912Z,53.35
2019-05-03T07:47:01.750Z,52.91
2019-05-03T07:49:27.765Z,53.89
2019-05-03T07:51:55.321Z,53.04
2019-05-03T07:54:21.385Z,53.29
2019-05-03T07:56:57.985Z,52.49
2019-05-03T07:59:25.096Z,50.11
2019-05-03T08:01:54.625Z,50.76
2019-05-03T08:04:20.630Z,51.91
2019-05-03T08:06:46.485Z,50.82
2019-05-03T08:09:12.348Z,49.47
2019-05-03T08:11:38.217Z,48.50
2019-05-03T08:14:05.029Z,48.07
2019-05-03T08:16:30.937Z,46.60
2019-05-03T08:18:56.823Z,48.02
2019-05-03T08:21:22.699Z,45.71
2019-05-03T08:23:48.582Z,44.37
2019-05-03T08:26:15.282Z,43.86
2019-05-03T08:28:41.387Z,44.25
2019-05-03T08:31:26.554Z,42.84
2019-05-03T08:34:06.199Z,44.68
2019-05-03T08:36:50.849Z,44.03
2019-05-03T08:39:16.753Z,45.51
2019-05-03T08:41:44.511Z,46.28
2019-05-03T08:44:10.361Z,46.65
2019-05-03T08:46:36.239Z,45.85
2019-05-03T08:49:02.195Z,46.65
2019-05-03T08:51:28.070Z,47.24
2019-05-03T08:53:55.966Z,46.32
2019-05-03T08:56:21.693Z,47.13
2019-05-03T08:58:47.540Z,45.66
2019-05-03T09:01:14.768Z,46.14
2019-05-03T09:03:40.861Z,45.14
2019-05-03T09:06:06.725Z,46.31
2019-05-03T09:08:35.106Z,45.53
2019-05-03T09:11:02.243Z,45.64
2019-05-03T09:13:47.933Z,43.46
2019-05-03T09:16:14.743Z,42.37
2019-05-03T09:18:40.823Z,41.43
2019-05-03T09:21:06.686Z,41.87
2019-05-03T09:23:32.549Z,40.51
2019-05-03T09:25:58.396Z,38.82
2019-05-03T09:28:26.474Z,37.50
2019-05-03T09:30:52.035Z,36.92
2019-05-03T09:33:18.179Z,37.78
2019-05-03T09:35:45.735Z,37.73
2019-05-03T09:38:11.785Z,37.24
2019-05-03T09:40:37.695Z,36.45
2019-05-03T09:43:04.555Z,37.16
2019-05-03T09:45:30.605Z,37.25
2019-05-03T09:47:56.505Z,38.79
2019-05-03T09:50:22.408Z,39.20
2019-05-03T09:52:48.296Z,39.24
2019-05-03T09:55:16.041Z,39.72
2019-05-03T09:57:51.328Z,38.34
2019-05-03T10:00:17.936Z,37.41
2019-05-03T10:02:45.026Z,37.27
2019-05-03T10:05:11.458Z,39.50
2019-05-03T10:07:37.311Z,41.00
2019-05-03T10:10:06.894Z,38.37
2019-05-03T10:12:32.830Z,39.16
2019-05-03T10:14:58.684Z,38.36
2019-05-03T10:17:35.360Z,39.13
2019-05-03T10:20:03.158Z,38.97
2019-05-03T10:22:29.015Z,40.13
2019-05-03T10:24:55.098Z,40.26
2019-05-03T10:27:20.967Z,41.27
2019-05-03T10:29:46.823Z,42.42
2019-05-03T10:32:31.115Z,41.29
2019-05-03T10:35:01.682Z,41.97
2019-05-03T10:37:31.324Z,42.45
2019-05-03T10:40:01.264Z,42.07
2019-05-03T10:42:27.113Z,42.45
2019-05-03T10:44:55.432Z,42.09
2019-05-03T10:47:20.750Z,42.07
2019-05-03T10:49:46.622Z,41.35
2019-05-03T10:52:15.027Z,41.28
2019-05-03T10:54:40.926Z,40.25
2019-05-03T10:57:08.690Z,40.18
2019-05-03T10:59:35.584Z,40.96
2019-05-03T11:02:12.766Z,40.69
2019-05-03T11:04:38.633Z,40.19
2019-05-03T11:07:05.479Z,40.93
2019-05-03T11:09:31.566Z,41.45
2019-05-03T11:11:59.335Z,40.77
2019-05-03T11:14:25.561Z,40.55
2019-05-03T11:16:51.482Z,40.46
2019-05-03T11:19:17.345Z,40.44
2019-05-03T11:21:45.315Z,39.73
2019-05-03T11:24:10.951Z,39.89
2019-05-03T11:26:37.128Z,40.29
2019-05-03T11:29:05.011Z,40.35
2019-05-03T11:31:47.976Z,39.84
2019-05-03T11:34:32.423Z,40.12
2019-05-03T11:37:16.916Z,40.23
2019-05-03T11:39:45.080Z,40.21
2019-05-03T11:42:10.654Z,40.53
2019-05-03T11:44:39.365Z,40.38
2019-05-03T11:47:06.928Z,40.41
2019-05-03T11:49:34.495Z,40.66
2019-05-03T11:52:00.544Z,40.81
2019-05-03T11:54:26.416Z,41.39
2019-05-03T11:56:52.565Z,42.19
2019-05-03T11:59:18.423Z,41.71
2019-05-03T12:02:04.859Z,42.19
2019-05-03T12:04:31.232Z,42.52
2019-05-03T12:06:57.228Z,42.73
2019-05-03T12:09:23.102Z,43.09
2019-05-03T12:11:48.965Z,43.42
2019-05-03T12:14:15.497Z,43.92
2019-05-03T12:17:17.294Z,42.89
2019-05-03T12:19:18.062Z,42.80
2019-05-03T12:21:41.947Z,42.72
2019-05-03T12:24:08.896Z,43.50
2019-05-03T12:26:43.469Z,44.05
2019-05-03T12:29:08.799Z,44.72
2019-05-03T12:31:40.233Z,44.07
2019-05-03T12:34:02.742Z,44.18
2019-05-03T12:36:28.600Z,44.48
2019-05-03T12:38:54.880Z,45.13
2019-05-03T12:41:20.817Z,46.31
2019-05-03T12:43:46.676Z,46.15
2019-05-03T12:46:12.547Z,46.06
2019-05-03T12:48:38.389Z,46.93
2019-05-03T12:51:06.420Z,46.86
2019-05-03T12:53:32.817Z,49.28
2019-05-03T12:55:58.697Z,48.43
2019-05-03T12:58:26.465Z,49.98
2019-05-03T13:00:55.670Z,49.31
2019-05-03T13:03:29.245Z,50.77
2019-05-03T13:05:55.601Z,50.89
2019-05-03T13:08:30.503Z,51.61
2019-05-03T13:10:56.369Z,51.03
2019-05-03T13:13:22.226Z,50.18
2019-05-03T13:15:48.077Z,50.23
2019-05-03T13:18:15.699Z,48.97
2019-05-03T13:20:41.709Z,50.19
2019-05-03T13:23:07.581Z,49.72
2019-05-03T13:25:35.478Z,49.26
2019-05-03T13:28:01.202Z,49.73
2019-05-03T13:30:27.068Z,49.23
2019-05-03T13:32:54.803Z,49.51
2019-05-03T13:35:20.710Z,49.03
2019-05-03T13:37:46.579Z,49.29
2019-05-03T13:40:12.548Z,49.27
2019-05-03T13:42:38.406Z,49.63
2019-05-03T13:45:05.666Z,50.26
2019-05-03T13:47:31.533Z,50.57
2019-05-03T13:49:57.392Z,50.70
2019-05-03T13:52:25.095Z,50.85
2019-05-03T13:54:51.020Z,50.53
2019-05-03T13:57:16.891Z,50.82
2019-05-03T13:59:44.693Z,51.76
2019-05-03T14:02:15.308Z,52.35
2019-05-03T14:04:49.443Z,52.46
2019-05-03T14:07:06.030Z,53.81
2019-05-03T14:09:32.109Z,54.59
2019-05-03T14:11:58.052Z,54.38
2019-05-03T14:14:25.711Z,55.23
2019-05-03T14:16:51.675Z,55.39
2019-05-03T14:19:25.347Z,55.71
2019-05-03T14:21:55.786Z,55.16
2019-05-03T14:24:21.617Z,54.99
2019-05-03T14:26:47.473Z,55.79
2019-05-03T14:29:14.868Z,55.38
2019-05-03T14:31:41.056Z,55.13
2019-05-03T14:34:06.930Z,55.03
2019-05-03T14:36:32.774Z,55.34
2019-05-03T14:38:58.643Z,55.95
2019-05-03T14:41:25.402Z,55.87
2019-05-03T14:43:51.565Z,55.20
2019-05-03T14:46:29.205Z,55.20
2019-05-03T14:48:45.825Z,55.53
2019-05-03T14:51:11.882Z,55.41
2019-05-03T14:53:37.884Z,55.86
2019-05-03T14:56:07.855Z,56.20
2019-05-03T14:58:41.490Z,55.78
2019-05-03T15:01:18.344Z,55.97
2019-05-03T15:03:44.196Z,56.23
2019-05-03T15:06:10.050Z,56.45
2019-05-03T15:08:35.944Z,56.37
2019-05-03T15:11:01.919Z,56.37
2019-05-03T15:13:27.755Z,55.81
2019-05-03T15:15:54.678Z,56.75
2019-05-03T15:18:20.793Z,56.86
2019-05-03T15:20:46.638Z,57.13
2019-05-03T15:23:14.705Z,57.74
2019-05-03T15:25:40.873Z,57.00
2019-05-03T15:28:06.786Z,56.39
2019-05-03T15:30:32.641Z,56.39
2019-05-03T15:33:00.906Z,56.43
2019-05-03T15:35:26.280Z,56.42
2019-05-03T15:37:52.131Z,56.45
2019-05-03T15:40:18.000Z,57.08
2019-05-03T15:42:45.772Z,56.41
2019-05-03T15:48:35.154Z,56.71
2019-05-03T15:51:01.147Z,57.21
2019-05-03T15:53:27.002Z,57.46
2019-05-03T15:55:54.843Z,57.25
2019-05-03T15:58:20.610Z,57.41
2019-05-03T16:00:46.800Z,58.01
2019-05-03T16:03:14.430Z,58.07
2019-05-03T16:05:40.418Z,57.93
2019-05-03T16:08:06.269Z,59.09
2019-05-03T16:10:32.137Z,58.42
2019-05-03T16:12:57.989Z,58.45
2019-05-03T16:15:24.620Z,58.56
2019-05-03T16:17:50.641Z,58.73
2019-05-03T16:20:16.515Z,59.23
2019-05-03T16:22:42.392Z,59.89
2019-05-03T16:25:09.082Z,60.16
2019-05-03T16:27:36.838Z,60.56
2019-05-03T16:30:07.599Z,60.37
2019-05-03T16:32:34.669Z,59.77
2019-05-03T16:35:01.226Z,59.72
2019-05-03T16:37:27.098Z,59.18
2019-05-03T16:39:55.044Z,60.16
2019-05-03T16:42:20.716Z,58.79
2019-05-03T16:44:46.585Z,59.03
2019-05-03T16:47:12.464Z,59.38
2019-05-03T16:49:38.556Z,59.10
2019-05-03T16:52:05.635Z,58.69
2019-05-03T16:54:31.582Z,58.71
2019-05-03T16:56:57.442Z,58.62
2019-05-03T16:59:24.745Z,59.30
2019-05-03T17:01:50.770Z,59.33
2019-05-03T17:04:27.696Z,59.53
2019-05-03T17:07:10.710Z,59.21
2019-05-03T17:09:50.411Z,58.92
2019-05-03T17:12:30.261Z,59.17
2019-05-03T17:14:56.992Z,59.15
2019-05-03T17:17:25.112Z,59.24
2019-05-03T17:19:50.831Z,60.88
2019-05-03T17:22:17.414Z,62.40
2019-05-03T17:24:44.474Z,63.57
2019-05-03T17:27:10.329Z,64.89
2019-05-03T17:29:36.221Z,63.41
2019-05-03T17:32:02.085Z,63.41
2019-05-03T17:34:27.943Z,63.78
2019-05-03T17:36:54.456Z,64.40
2019-05-03T17:39:38.836Z,63.72
2019-05-03T17:42:15.814Z,62.49
2019-05-03T17:44:46.473Z,62.82
2019-05-03T17:47:12.320Z,63.47
2019-05-03T17:49:38.202Z,62.67
2019-05-03T17:52:06.001Z,62.66
2019-05-03T17:54:35.663Z,62.17
2019-05-03T17:57:21.669Z,62.32
2019-05-03T18:00:06.481Z,61.62
2019-05-03T18:02:37.065Z,61.33
2019-05-03T18:05:22.816Z,61.50
2019-05-03T18:07:56.674Z,61.19
2019-05-03T18:10:24.375Z,61.08
2019-05-03T18:12:50.299Z,60.81
2019-05-03T18:15:16.156Z,60.59
2019-05-03T18:17:42.011Z,60.03
2019-05-03T18:20:08.068Z,60.01
2019-05-03T18:22:33.932Z,60.06
2019-05-03T18:24:59.785Z,59.98
2019-05-03T18:27:25.651Z,60.35
2019-05-03T18:29:51.515Z,60.56
2019-05-03T18:32:17.380Z,60.50
2019-05-03T18:34:45.183Z,60.01
2019-05-03T18:37:11.014Z,59.71
2019-05-03T18:39:36.874Z,59.56
2019-05-03T18:42:04.967Z,59.38
2019-05-03T18:44:34.557Z,59.70
2019-05-03T18:47:05.477Z,59.59
2019-05-03T18:49:31.445Z,58.79
2019-05-03T18:51:57.337Z,58.23
2019-05-03T18:54:24.607Z,58.97
2019-05-03T18:56:50.640Z,58.64
2019-05-03T18:59:16.502Z,58.45
2019-05-03T19:01:45.038Z,59.16
2019-05-03T19:04:14.715Z,58.00
2019-05-03T19:06:40.859Z,58.11
2019-05-03T19:09:11.388Z,58.54
2019-05-03T19:11:39.141Z,58.99
2019-05-03T19:14:09.481Z,58.55
2019-05-03T19:16:45.407Z,58.24
2019-05-03T19:19:12.369Z,58.22
2019-05-03T19:21:38.223Z,58.41
2019-05-03T19:24:04.869Z,58.40
2019-05-03T19:26:31.070Z,58.94
2019-05-03T19:28:56.929Z,59.16
2019-05-03T19:31:25.103Z,60.08
2019-05-03T19:33:51.163Z,59.86
2019-05-03T19:36:17.035Z,60.68
2019-05-03T19:38:42.889Z,60.85
2019-05-03T19:41:08.744Z,60.89
2019-05-03T19:43:35.549Z,61.20
2019-05-03T19:46:01.674Z,63.50
2019-05-03T19:48:27.533Z,64.91
2019-05-03T19:50:54.978Z,64.91
2019-05-03T19:53:28.541Z,65.53
2019-05-03T19:55:55.352Z,66.79
2019-05-03T19:58:21.257Z,67.08
2019-05-03T20:00:49.009Z,67.62
2019-05-03T20:03:35.125Z,66.59
2019-05-03T20:06:04.851Z,67.76
2019-05-03T20:08:41.587Z,67.30
2019-05-03T20:11:17.284Z,66.75
2019-05-03T20:13:45.182Z,67.12
2019-05-03T20:16:11.117Z,67.20
2019-05-03T20:18:36.969Z,66.80
2019-05-03T20:21:04.359Z,66.75
2019-05-03T20:23:30.312Z,67.47
2019-05-03T20:25:56.718Z,67.39
2019-05-03T20:28:24.606Z,67.10
2019-05-03T20:30:50.342Z,66.57
2019-05-03T20:33:16.195Z,66.74
2019-05-03T20:35:42.051Z,66.62
2019-05-03T20:38:07.919Z,66.52
2019-05-03T20:40:35.074Z,67.40
2019-05-03T20:43:05.474Z,67.76
2019-05-03T20:45:36.045Z,68.96
2019-05-03T20:48:02.886Z,68.44
2019-05-03T20:50:28.746Z,69.02
2019-05-03T20:52:55.069Z,69.41
2019-05-03T20:55:21.012Z,70.38
2019-05-03T20:57:46.870Z,69.29
2019-05-03T21:00:17.065Z,70.35
2019-05-03T21:02:51.594Z,71.42
2019-05-03T21:05:24.666Z,71.87
2019-05-03T21:07:40.249Z,72.20
2019-05-03T21:10:07.282Z,73.27
2019-05-03T21:12:34.661Z,72.98
2019-05-03T21:15:01.561Z,73.96
2019-05-03T21:17:35.216Z,73.68
2019-05-03T21:20:02.994Z,73.91
2019-05-03T21:22:30.483Z,75.48
2019-05-03T21:24:58.249Z,75.37
2019-05-03T21:27:24.635Z,75.78
2019-05-03T21:29:51.368Z,76.42
2019-05-03T21:32:17.644Z,76.81
2019-05-03T21:34:45.148Z,76.57
2019-05-03T21:37:11.081Z,76.76
2019-05-03T21:39:36.938Z,76.86
2019-05-03T21:42:04.631Z,76.85
2019-05-03T21:44:31.685Z,77.37
2019-05-03T21:46:59.445Z,76.74
2019-05-03T21:49:27.280Z,77.49
2019-05-03T21:51:53.642Z,77.83
2019-05-03T21:54:20.594Z,77.52
2019-05-03T21:56:46.444Z,78.22
2019-05-03T21:59:12.314Z,78.08
2019-05-03T22:01:40.079Z,77.42
2019-05-03T22:04:05.938Z,78.33
2019-05-03T22:06:31.813Z,78.53
2019-05-03T22:08:58.383Z,78.71
2019-05-03T22:11:25.189Z,79.59
2019-05-03T22:13:54.273Z,79.79
2019-05-03T22:16:24.621Z,79.96
2019-05-03T22:18:50.628Z,79.33
2019-05-03T22:21:27.062Z,79.66
2019-05-03T22:24:09.923Z,79.44
2019-05-03T22:26:54.341Z,79.49
2019-05-03T22:29:20.336Z,79.78
2019-05-03T22:31:46.406Z,79.92
2019-05-03T22:34:12.292Z,80.41
2019-05-03T22:36:38.158Z,79.14
2019-05-03T22:39:05.353Z,79.74
2019-05-03T22:41:31.217Z,79.57
2019-05-03T22:43:57.073Z,79.28
2019-05-03T22:46:24.826Z,79.30
2019-05-03T22:48:50.718Z,80.22
2019-05-03T22:51:16.581Z,80.76
2019-05-03T22:53:42.442Z,80.37
2019-05-03T22:56:08.298Z,80.06
2019-05-03T22:58:35.470Z,81.41
2019-05-03T23:01:01.526Z,81.28
2019-05-03T23:03:29.292Z,81.47
2019-05-03T23:05:55.137Z,81.11
2019-05-03T23:08:21.025Z,81.37
2019-05-03T23:10:46.886Z,81.82
2019-05-03T23:13:12.742Z,80.99
2019-05-03T23:15:38.604Z,81.22
2019-05-03T23:18:04.974Z,81.68
2019-05-03T23:20:34.458Z,81.38
2019-05-03T23:23:00.480Z,81.29
2019-05-03T23:25:26.337Z,81.40
2019-05-03T23:27:52.202Z,81.02
2019-05-03T23:30:18.074Z,81.51
2019-05-03T23:32:45.330Z,80.91
2019-05-03T23:35:11.306Z,81.58
2019-05-03T23:37:37.193Z,78.90
2019-05-03T23:40:06.390Z,78.94
2019-05-03T23:42:32.244Z,79.20
2019-05-03T23:44:58.111Z,79.31
2019-05-03T23:47:31.929Z,78.86
2019-05-03T23:49:57.782Z,77.96
2019-05-03T23:52:25.767Z,78.27
2019-05-03T23:54:52.141Z,79.03
2019-05-03T23:57:18.023Z,79.72
2019-05-03T23:59:44.947Z,81.29
